sensor_id;sensor_type;location;lat;lon;timestamp;temperature;humidity
52731;DHT22;38624;53.242;6.974;2023-05-07T00:00:19;10.20;99.90
52731;DHT22;38624;53.242;6.974;2023-05-07T00:02:45;10.20;99.90
52731;DHT22;38624;53.242;6.974;2023-05-07T00:05:11;10.10;99.90
52731;DHT22;38624;53.242;6.974;2023-05-07T00:07:36;10.10;99.90
52731;DHT22;38624;53.242;6.974;2023-05-07T00:10:03;10.10;99.90
52731;DHT22;38624;53.242;6.974;2023-05-07T00:12:28;10.10;99.90
52731;DHT22;38624;53.242;6.974;2023-05-07T00:14:56;10.20;99.90
52731;DHT22;38624;53.242;6.974;2023-05-07T00:17:22;10.20;99.90
52731;DHT22;38624;53.242;6.974;2023-05-07T00:19:48;10.20;99.90
52731;DHT22;38624;53.242;6.974;2023-05-07T00:22:14;10.30;99.90
52731;DHT22;38624;53.242;6.974;2023-05-07T00:24:39;10.40;99.90
52731;DHT22;38624;53.242;6.974;2023-05-07T00:27:05;10.40;99.90
52731;DHT22;38624;53.242;6.974;2023-05-07T00:29:30;10.40;99.90
52731;DHT22;38624;53.242;6.974;2023-05-07T00:31:56;10.40;99.90
52731;DHT22;38624;53.242;6.974;2023-05-07T00:34:22;10.50;99.90
52731;DHT22;38624;53.242;6.974;2023-05-07T00:36:47;10.60;99.90
52731;DHT22;38624;53.242;6.974;2023-05-07T00:39:13;10.60;99.90
52731;DHT22;38624;53.242;6.974;2023-05-07T00:41:39;10.60;99.90
52731;DHT22;38624;53.242;6.974;2023-05-07T00:44:04;10.70;99.90
52731;DHT22;38624;53.242;6.974;2023-05-07T00:46:30;10.70;99.90
52731;DHT22;38624;53.242;6.974;2023-05-07T00:48:56;10.70;99.90
52731;DHT22;38624;53.242;6.974;2023-05-07T00:51:22;10.70;99.90
52731;DHT22;38624;53.242;6.974;2023-05-07T00:53:48;10.80;99.90
52731;DHT22;38624;53.242;6.974;2023-05-07T00:56:14;10.80;99.90
52731;DHT22;38624;53.242;6.974;2023-05-07T00:58:40;10.90;99.90
52731;DHT22;38624;53.242;6.974;2023-05-07T01:01:06;10.80;99.90
52731;DHT22;38624;53.242;6.974;2023-05-07T01:03:31;10.90;99.90
52731;DHT22;38624;53.242;6.974;2023-05-07T01:05:57;10.90;99.90
52731;DHT22;38624;53.242;6.974;2023-05-07T01:08:23;10.90;99.90
52731;DHT22;38624;53.242;6.974;2023-05-07T01:10:52;10.90;99.90
52731;DHT22;38624;53.242;6.974;2023-05-07T01:13:18;10.90;99.90
52731;DHT22;38624;53.242;6.974;2023-05-07T01:15:44;10.90;99.90
52731;DHT22;38624;53.242;6.974;2023-05-07T01:18:10;10.90;99.90
52731;DHT22;38624;53.242;6.974;2023-05-07T01:20:36;11.00;99.90
52731;DHT22;38624;53.242;6.974;2023-05-07T01:23:01;12.10;99.90
52731;DHT22;38624;53.242;6.974;2023-05-07T01:25:28;11.00;99.90
52731;DHT22;38624;53.242;6.974;2023-05-07T01:27:54;11.00;99.90
52731;DHT22;38624;53.242;6.974;2023-05-07T01:30:20;11.00;99.90
52731;DHT22;38624;53.242;6.974;2023-05-07T01:32:55;11.10;99.90
52731;DHT22;38624;53.242;6.974;2023-05-07T01:35:22;11.10;99.90
52731;DHT22;38624;53.242;6.974;2023-05-07T01:37:49;11.10;99.90
52731;DHT22;38624;53.242;6.974;2023-05-07T01:40:15;11.10;99.90
52731;DHT22;38624;53.242;6.974;2023-05-07T01:42:42;11.00;99.90
52731;DHT22;38624;53.242;6.974;2023-05-07T01:45:08;11.00;99.90
52731;DHT22;38624;53.242;6.974;2023-05-07T01:47:34;11.10;99.90
52731;DHT22;38624;53.242;6.974;2023-05-07T01:50:00;11.10;99.90
52731;DHT22;38624;53.242;6.974;2023-05-07T01:52:26;11.10;99.90
52731;DHT22;38624;53.242;6.974;2023-05-07T01:54:52;11.10;99.90
52731;DHT22;38624;53.242;6.974;2023-05-07T01:57:18;11.10;99.90
52731;DHT22;38624;53.242;6.974;2023-05-07T01:59:44;11.10;99.90
52731;DHT22;38624;53.242;6.974;2023-05-07T02:02:09;11.10;99.90
52731;DHT22;38624;53.242;6.974;2023-05-07T02:04:35;11.10;99.90
52731;DHT22;38624;53.242;6.974;2023-05-07T02:07:00;11.10;99.90
52731;DHT22;38624;53.242;6.974;2023-05-07T02:09:26;11.10;99.90
52731;DHT22;38624;53.242;6.974;2023-05-07T02:11:51;11.10;99.90
52731;DHT22;38624;53.242;6.974;2023-05-07T02:14:17;11.00;99.90
52731;DHT22;38624;53.242;6.974;2023-05-07T02:16:43;11.00;99.90
52731;DHT22;38624;53.242;6.974;2023-05-07T02:19:08;11.00;99.90
52731;DHT22;38624;53.242;6.974;2023-05-07T02:21:34;11.00;99.90
52731;DHT22;38624;53.242;6.974;2023-05-07T02:23:59;11.00;99.90
52731;DHT22;38624;53.242;6.974;2023-05-07T02:26:25;10.90;99.90
52731;DHT22;38624;53.242;6.974;2023-05-07T02:28:51;10.90;99.90
52731;DHT22;38624;53.242;6.974;2023-05-07T02:31:17;11.00;99.90
52731;DHT22;38624;53.242;6.974;2023-05-07T02:33:42;11.00;99.90
52731;DHT22;38624;53.242;6.974;2023-05-07T02:36:08;11.00;99.90
52731;DHT22;38624;53.242;6.974;2023-05-07T02:38:34;11.00;99.90
52731;DHT22;38624;53.242;6.974;2023-05-07T02:41:00;11.00;99.90
52731;DHT22;38624;53.242;6.974;2023-05-07T02:43:25;11.00;99.90
52731;DHT22;38624;53.242;6.974;2023-05-07T02:46:01;11.00;99.90
52731;DHT22;38624;53.242;6.974;2023-05-07T02:48:27;11.00;99.90
52731;DHT22;38624;53.242;6.974;2023-05-07T02:50:52;11.00;99.90
52731;DHT22;38624;53.242;6.974;2023-05-07T02:53:18;11.00;99.90
52731;DHT22;38624;53.242;6.974;2023-05-07T02:55:43;10.90;99.90
52731;DHT22;38624;53.242;6.974;2023-05-07T02:58:09;11.00;99.90
52731;DHT22;38624;53.242;6.974;2023-05-07T03:00:34;10.90;99.90
52731;DHT22;38624;53.242;6.974;2023-05-07T03:03:00;11.00;99.90
52731;DHT22;38624;53.242;6.974;2023-05-07T03:05:25;11.00;99.90
52731;DHT22;38624;53.242;6.974;2023-05-07T03:07:51;11.00;99.90
52731;DHT22;38624;53.242;6.974;2023-05-07T03:10:17;10.90;99.90
52731;DHT22;38624;53.242;6.974;2023-05-07T03:12:43;10.90;99.90
52731;DHT22;38624;53.242;6.974;2023-05-07T03:15:09;10.90;99.90
52731;DHT22;38624;53.242;6.974;2023-05-07T03:17:35;10.90;99.90
52731;DHT22;38624;53.242;6.974;2023-05-07T03:20:01;10.80;99.90
52731;DHT22;38624;53.242;6.974;2023-05-07T03:22:27;10.70;99.90
52731;DHT22;38624;53.242;6.974;2023-05-07T03:24:52;10.70;99.90
52731;DHT22;38624;53.242;6.974;2023-05-07T03:27:18;10.70;99.90
52731;DHT22;38624;53.242;6.974;2023-05-07T03:29:43;10.70;99.90
52731;DHT22;38624;53.242;6.974;2023-05-07T03:32:09;10.70;99.90
52731;DHT22;38624;53.242;6.974;2023-05-07T03:34:35;10.70;99.90
52731;DHT22;38624;53.242;6.974;2023-05-07T03:37:00;10.70;99.90
52731;DHT22;38624;53.242;6.974;2023-05-07T03:39:26;10.70;99.90
52731;DHT22;38624;53.242;6.974;2023-05-07T03:41:51;10.70;99.90
52731;DHT22;38624;53.242;6.974;2023-05-07T03:44:17;10.70;99.90
52731;DHT22;38624;53.242;6.974;2023-05-07T03:46:42;10.70;99.90
52731;DHT22;38624;53.242;6.974;2023-05-07T03:49:08;10.70;99.90
52731;DHT22;38624;53.242;6.974;2023-05-07T03:51:33;10.70;99.90
52731;DHT22;38624;53.242;6.974;2023-05-07T03:53:59;10.70;99.90
52731;DHT22;38624;53.242;6.974;2023-05-07T03:56:24;10.70;99.90
52731;DHT22;38624;53.242;6.974;2023-05-07T03:58:52;10.70;99.90
52731;DHT22;38624;53.242;6.974;2023-05-07T04:01:17;10.70;99.90
52731;DHT22;38624;53.242;6.974;2023-05-07T04:03:43;10.70;99.90
52731;DHT22;38624;53.242;6.974;2023-05-07T04:06:08;10.70;99.90
52731;DHT22;38624;53.242;6.974;2023-05-07T04:08:34;10.60;99.90
52731;DHT22;38624;53.242;6.974;2023-05-07T04:11:00;10.60;99.90
52731;DHT22;38624;53.242;6.974;2023-05-07T04:13:25;10.60;99.90
52731;DHT22;38624;53.242;6.974;2023-05-07T04:15:51;10.60;99.90
52731;DHT22;38624;53.242;6.974;2023-05-07T04:18:17;10.60;99.90
52731;DHT22;38624;53.242;6.974;2023-05-07T04:20:43;10.60;99.90
52731;DHT22;38624;53.242;6.974;2023-05-07T04:23:08;10.60;99.90
52731;DHT22;38624;53.242;6.974;2023-05-07T04:25:34;10.60;99.90
52731;DHT22;38624;53.242;6.974;2023-05-07T04:27:59;10.60;99.90
52731;DHT22;38624;53.242;6.974;2023-05-07T04:30:25;10.50;99.90
52731;DHT22;38624;53.242;6.974;2023-05-07T04:32:51;10.60;99.90
52731;DHT22;38624;53.242;6.974;2023-05-07T04:35:16;10.60;99.90
52731;DHT22;38624;53.242;6.974;2023-05-07T04:37:42;10.60;99.90
52731;DHT22;38624;53.242;6.974;2023-05-07T04:40:08;10.50;99.90
52731;DHT22;38624;53.242;6.974;2023-05-07T04:42:33;10.50;99.90
52731;DHT22;38624;53.242;6.974;2023-05-07T04:44:59;10.40;99.90
52731;DHT22;38624;53.242;6.974;2023-05-07T04:47:25;10.50;99.90
52731;DHT22;38624;53.242;6.974;2023-05-07T04:49:51;10.40;99.90
52731;DHT22;38624;53.242;6.974;2023-05-07T04:52:16;10.40;99.90
52731;DHT22;38624;53.242;6.974;2023-05-07T04:54:42;10.40;99.90
52731;DHT22;38624;53.242;6.974;2023-05-07T04:57:07;10.40;99.90
52731;DHT22;38624;53.242;6.974;2023-05-07T04:59:33;10.40;99.90
52731;DHT22;38624;53.242;6.974;2023-05-07T05:01:59;10.40;99.90
52731;DHT22;38624;53.242;6.974;2023-05-07T05:04:24;10.40;99.90
52731;DHT22;38624;53.242;6.974;2023-05-07T05:06:50;10.40;99.90
52731;DHT22;38624;53.242;6.974;2023-05-07T05:09:15;10.40;99.90
52731;DHT22;38624;53.242;6.974;2023-05-07T05:11:41;10.40;99.90
52731;DHT22;38624;53.242;6.974;2023-05-07T05:14:06;10.40;99.90
52731;DHT22;38624;53.242;6.974;2023-05-07T05:16:32;10.50;99.90
52731;DHT22;38624;53.242;6.974;2023-05-07T05:18:58;10.50;99.90
52731;DHT22;38624;53.242;6.974;2023-05-07T05:21:23;10.50;99.90
52731;DHT22;38624;53.242;6.974;2023-05-07T05:23:49;10.50;99.90
52731;DHT22;38624;53.242;6.974;2023-05-07T05:26:15;10.60;99.90
52731;DHT22;38624;53.242;6.974;2023-05-07T05:28:40;10.50;99.90
52731;DHT22;38624;53.242;6.974;2023-05-07T05:31:06;10.50;99.90
52731;DHT22;38624;53.242;6.974;2023-05-07T05:33:31;10.50;99.90
52731;DHT22;38624;53.242;6.974;2023-05-07T05:35:57;10.60;99.90
52731;DHT22;38624;53.242;6.974;2023-05-07T05:38:23;10.70;99.90
52731;DHT22;38624;53.242;6.974;2023-05-07T05:40:48;10.70;99.90
52731;DHT22;38624;53.242;6.974;2023-05-07T05:43:14;10.70;99.90
52731;DHT22;38624;53.242;6.974;2023-05-07T05:45:40;10.70;99.90
52731;DHT22;38624;53.242;6.974;2023-05-07T05:48:05;10.80;99.90
52731;DHT22;38624;53.242;6.974;2023-05-07T05:50:31;10.80;99.90
52731;DHT22;38624;53.242;6.974;2023-05-07T05:52:56;10.70;99.90
52731;DHT22;38624;53.242;6.974;2023-05-07T05:55:23;10.80;99.90
52731;DHT22;38624;53.242;6.974;2023-05-07T05:57:49;10.80;99.90
52731;DHT22;38624;53.242;6.974;2023-05-07T06:00:15;10.90;99.90
52731;DHT22;38624;53.242;6.974;2023-05-07T06:02:41;10.90;99.90
52731;DHT22;38624;53.242;6.974;2023-05-07T06:05:08;10.90;99.90
52731;DHT22;38624;53.242;6.974;2023-05-07T06:07:33;10.90;99.90
52731;DHT22;38624;53.242;6.974;2023-05-07T06:10:00;10.90;99.90
52731;DHT22;38624;53.242;6.974;2023-05-07T06:12:26;10.90;99.90
52731;DHT22;38624;53.242;6.974;2023-05-07T06:14:51;10.90;99.90
52731;DHT22;38624;53.242;6.974;2023-05-07T06:17:17;10.90;99.90
52731;DHT22;38624;53.242;6.974;2023-05-07T06:19:43;10.90;99.90
52731;DHT22;38624;53.242;6.974;2023-05-07T06:22:08;10.90;99.90
52731;DHT22;38624;53.242;6.974;2023-05-07T06:24:34;10.90;99.90
52731;DHT22;38624;53.242;6.974;2023-05-07T06:27:00;10.90;99.90
52731;DHT22;38624;53.242;6.974;2023-05-07T06:29:25;11.00;99.90
52731;DHT22;38624;53.242;6.974;2023-05-07T06:31:54;11.00;99.90
52731;DHT22;38624;53.242;6.974;2023-05-07T06:34:19;11.10;99.90
52731;DHT22;38624;53.242;6.974;2023-05-07T06:36:45;11.10;99.90
52731;DHT22;38624;53.242;6.974;2023-05-07T06:39:10;11.20;99.90
52731;DHT22;38624;53.242;6.974;2023-05-07T06:41:36;11.10;99.90
52731;DHT22;38624;53.242;6.974;2023-05-07T06:44:04;11.20;99.90
52731;DHT22;38624;53.242;6.974;2023-05-07T06:46:30;11.30;99.90
52731;DHT22;38624;53.242;6.974;2023-05-07T06:48:56;11.30;99.90
52731;DHT22;38624;53.242;6.974;2023-05-07T06:51:22;11.30;99.90
52731;DHT22;38624;53.242;6.974;2023-05-07T06:53:47;11.40;99.90
52731;DHT22;38624;53.242;6.974;2023-05-07T06:56:13;11.30;99.90
52731;DHT22;38624;53.242;6.974;2023-05-07T06:58:39;11.40;99.90
52731;DHT22;38624;53.242;6.974;2023-05-07T07:01:04;11.50;99.90
52731;DHT22;38624;53.242;6.974;2023-05-07T07:03:30;11.50;99.90
52731;DHT22;38624;53.242;6.974;2023-05-07T07:05:55;11.50;99.90
52731;DHT22;38624;53.242;6.974;2023-05-07T07:08:21;11.60;99.90
52731;DHT22;38624;53.242;6.974;2023-05-07T07:10:47;11.60;99.90
52731;DHT22;38624;53.242;6.974;2023-05-07T07:13:13;11.60;99.90
52731;DHT22;38624;53.242;6.974;2023-05-07T07:15:38;11.70;99.90
52731;DHT22;38624;53.242;6.974;2023-05-07T07:18:04;11.70;99.90
52731;DHT22;38624;53.242;6.974;2023-05-07T07:20:29;11.70;99.90
52731;DHT22;38624;53.242;6.974;2023-05-07T07:22:55;11.90;99.90
52731;DHT22;38624;53.242;6.974;2023-05-07T07:25:21;11.90;99.90
52731;DHT22;38624;53.242;6.974;2023-05-07T07:27:46;12.00;99.90
52731;DHT22;38624;53.242;6.974;2023-05-07T07:30:12;12.20;99.90
52731;DHT22;38624;53.242;6.974;2023-05-07T07:32:37;12.20;99.90
52731;DHT22;38624;53.242;6.974;2023-05-07T07:35:03;12.20;99.90
52731;DHT22;38624;53.242;6.974;2023-05-07T07:37:29;12.30;99.90
52731;DHT22;38624;53.242;6.974;2023-05-07T07:39:55;12.30;99.90
52731;DHT22;38624;53.242;6.974;2023-05-07T07:42:21;12.40;99.90
52731;DHT22;38624;53.242;6.974;2023-05-07T07:44:46;12.50;99.90
52731;DHT22;38624;53.242;6.974;2023-05-07T07:47:12;12.50;99.90
52731;DHT22;38624;53.242;6.974;2023-05-07T07:49:37;12.60;99.90
52731;DHT22;38624;53.242;6.974;2023-05-07T07:52:03;12.80;99.90
52731;DHT22;38624;53.242;6.974;2023-05-07T07:54:29;13.00;99.90
52731;DHT22;38624;53.242;6.974;2023-05-07T07:56:54;13.10;99.90
52731;DHT22;38624;53.242;6.974;2023-05-07T07:59:20;13.30;99.90
52731;DHT22;38624;53.242;6.974;2023-05-07T08:01:46;13.40;99.90
52731;DHT22;38624;53.242;6.974;2023-05-07T08:04:13;13.50;99.90
52731;DHT22;38624;53.242;6.974;2023-05-07T08:06:39;13.60;99.90
52731;DHT22;38624;53.242;6.974;2023-05-07T08:09:04;13.60;99.90
52731;DHT22;38624;53.242;6.974;2023-05-07T08:11:30;13.60;99.90
52731;DHT22;38624;53.242;6.974;2023-05-07T08:13:55;13.70;99.90
52731;DHT22;38624;53.242;6.974;2023-05-07T08:16:21;13.70;99.90
52731;DHT22;38624;53.242;6.974;2023-05-07T08:18:47;13.80;99.90
52731;DHT22;38624;53.242;6.974;2023-05-07T08:21:12;14.00;99.90
52731;DHT22;38624;53.242;6.974;2023-05-07T08:23:38;14.10;99.90
52731;DHT22;38624;53.242;6.974;2023-05-07T08:26:04;14.30;99.90
52731;DHT22;38624;53.242;6.974;2023-05-07T08:28:29;14.40;99.90
52731;DHT22;38624;53.242;6.974;2023-05-07T08:30:55;14.30;99.90
52731;DHT22;38624;53.242;6.974;2023-05-07T08:33:22;14.30;99.90
52731;DHT22;38624;53.242;6.974;2023-05-07T08:35:47;14.30;99.90
52731;DHT22;38624;53.242;6.974;2023-05-07T08:38:13;14.30;99.90
52731;DHT22;38624;53.242;6.974;2023-05-07T08:40:39;14.60;99.90
52731;DHT22;38624;53.242;6.974;2023-05-07T08:43:06;14.70;99.90
52731;DHT22;38624;53.242;6.974;2023-05-07T08:45:35;14.90;99.90
52731;DHT22;38624;53.242;6.974;2023-05-07T08:48:02;14.90;99.90
52731;DHT22;38624;53.242;6.974;2023-05-07T08:50:28;15.00;99.90
52731;DHT22;38624;53.242;6.974;2023-05-07T08:52:54;15.20;99.90
52731;DHT22;38624;53.242;6.974;2023-05-07T08:55:20;15.40;99.90
52731;DHT22;38624;53.242;6.974;2023-05-07T08:57:45;15.50;99.90
52731;DHT22;38624;53.242;6.974;2023-05-07T09:00:12;15.60;99.90
52731;DHT22;38624;53.242;6.974;2023-05-07T09:02:38;15.70;99.90
52731;DHT22;38624;53.242;6.974;2023-05-07T09:05:03;15.90;99.90
52731;DHT22;38624;53.242;6.974;2023-05-07T09:07:30;16.10;99.90
52731;DHT22;38624;53.242;6.974;2023-05-07T09:09:55;16.30;99.90
52731;DHT22;38624;53.242;6.974;2023-05-07T09:12:22;16.50;99.90
52731;DHT22;38624;53.242;6.974;2023-05-07T09:14:48;16.80;99.90
52731;DHT22;38624;53.242;6.974;2023-05-07T09:17:15;17.00;99.90
52731;DHT22;38624;53.242;6.974;2023-05-07T09:19:40;17.20;99.90
52731;DHT22;38624;53.242;6.974;2023-05-07T09:22:06;17.40;99.90
52731;DHT22;38624;53.242;6.974;2023-05-07T09:24:34;17.20;99.90
52731;DHT22;38624;53.242;6.974;2023-05-07T09:27:04;17.30;99.90
52731;DHT22;38624;53.242;6.974;2023-05-07T09:29:30;17.30;99.90
52731;DHT22;38624;53.242;6.974;2023-05-07T09:32:01;17.40;99.90
52731;DHT22;38624;53.242;6.974;2023-05-07T09:34:26;17.50;99.90
52731;DHT22;38624;53.242;6.974;2023-05-07T09:36:52;17.50;99.90
52731;DHT22;38624;53.242;6.974;2023-05-07T09:39:18;17.40;99.90
52731;DHT22;38624;53.242;6.974;2023-05-07T09:41:45;17.50;99.90
52731;DHT22;38624;53.242;6.974;2023-05-07T09:44:11;17.40;99.90
52731;DHT22;38624;53.242;6.974;2023-05-07T09:46:36;17.40;99.90
52731;DHT22;38624;53.242;6.974;2023-05-07T09:49:03;17.20;99.90
52731;DHT22;38624;53.242;6.974;2023-05-07T09:51:33;17.20;99.90
52731;DHT22;38624;53.242;6.974;2023-05-07T09:54:02;17.30;99.90
52731;DHT22;38624;53.242;6.974;2023-05-07T09:56:31;17.60;99.90
52731;DHT22;38624;53.242;6.974;2023-05-07T09:58:59;17.80;99.90
52731;DHT22;38624;53.242;6.974;2023-05-07T10:01:25;18.10;99.90
52731;DHT22;38624;53.242;6.974;2023-05-07T10:03:52;18.30;99.90
52731;DHT22;38624;53.242;6.974;2023-05-07T10:06:19;18.50;99.90
52731;DHT22;38624;53.242;6.974;2023-05-07T10:08:45;18.60;99.90
52731;DHT22;38624;53.242;6.974;2023-05-07T10:11:11;18.70;99.90
52731;DHT22;38624;53.242;6.974;2023-05-07T10:13:37;18.80;99.90
52731;DHT22;38624;53.242;6.974;2023-05-07T10:16:03;18.60;99.90
52731;DHT22;38624;53.242;6.974;2023-05-07T10:18:30;18.60;99.90
52731;DHT22;38624;53.242;6.974;2023-05-07T10:21:19;18.90;99.90
52731;DHT22;38624;53.242;6.974;2023-05-07T10:23:50;18.90;99.90
52731;DHT22;38624;53.242;6.974;2023-05-07T10:26:20;19.00;99.90
52731;DHT22;38624;53.242;6.974;2023-05-07T10:28:49;19.10;99.90
52731;DHT22;38624;53.242;6.974;2023-05-07T10:34:00;19.20;99.90
52731;DHT22;38624;53.242;6.974;2023-05-07T10:36:27;18.60;99.90
52731;DHT22;38624;53.242;6.974;2023-05-07T10:38:53;18.50;99.90
52731;DHT22;38624;53.242;6.974;2023-05-07T10:41:19;18.50;99.90
52731;DHT22;38624;53.242;6.974;2023-05-07T10:43:46;18.50;99.90
52731;DHT22;38624;53.242;6.974;2023-05-07T10:51:22;18.60;99.90
52731;DHT22;38624;53.242;6.974;2023-05-07T10:53:47;18.40;99.90
52731;DHT22;38624;53.242;6.974;2023-05-07T10:58:42;18.30;99.90
52731;DHT22;38624;53.242;6.974;2023-05-07T11:01:07;18.40;99.90
52731;DHT22;38624;53.242;6.974;2023-05-07T11:03:33;18.30;99.90
52731;DHT22;38624;53.242;6.974;2023-05-07T11:06:12;18.60;99.90
52731;DHT22;38624;53.242;6.974;2023-05-07T11:11:16;19.40;99.90
52731;DHT22;38624;53.242;6.974;2023-05-07T11:13:45;20.10;99.90
52731;DHT22;38624;53.242;6.974;2023-05-07T11:16:18;20.60;99.90
52731;DHT22;38624;53.242;6.974;2023-05-07T11:18:51;20.50;99.90
52731;DHT22;38624;53.242;6.974;2023-05-07T11:24:01;20.40;99.90
52731;DHT22;38624;53.242;6.974;2023-05-07T11:26:29;20.80;99.90
52731;DHT22;38624;53.242;6.974;2023-05-07T11:28:55;21.00;99.90
52731;DHT22;38624;53.242;6.974;2023-05-07T11:31:25;21.10;99.90
52731;DHT22;38624;53.242;6.974;2023-05-07T11:33:53;21.20;99.90
52731;DHT22;38624;53.242;6.974;2023-05-07T11:36:19;21.20;99.90
52731;DHT22;38624;53.242;6.974;2023-05-07T11:38:46;21.00;99.90
52731;DHT22;38624;53.242;6.974;2023-05-07T11:41:11;20.90;99.90
52731;DHT22;38624;53.242;6.974;2023-05-07T11:43:37;21.50;99.90
52731;DHT22;38624;53.242;6.974;2023-05-07T11:46:09;21.70;99.90
52731;DHT22;38624;53.242;6.974;2023-05-07T11:48:35;22.20;99.90
52731;DHT22;38624;53.242;6.974;2023-05-07T11:51:01;24.30;99.90
52731;DHT22;38624;53.242;6.974;2023-05-07T11:53:28;24.10;99.90
52731;DHT22;38624;53.242;6.974;2023-05-07T11:56:00;24.40;99.90
52731;DHT22;38624;53.242;6.974;2023-05-07T11:58:26;25.30;99.90
52731;DHT22;38624;53.242;6.974;2023-05-07T12:00:52;26.20;99.90
52731;DHT22;38624;53.242;6.974;2023-05-07T12:03:17;26.70;99.90
52731;DHT22;38624;53.242;6.974;2023-05-07T12:05:44;27.80;99.90
52731;DHT22;38624;53.242;6.974;2023-05-07T12:08:13;28.50;99.90
52731;DHT22;38624;53.242;6.974;2023-05-07T12:10:42;29.00;99.90
52731;DHT22;38624;53.242;6.974;2023-05-07T12:13:29;28.80;99.90
52731;DHT22;38624;53.242;6.974;2023-05-07T12:15:55;29.30;99.90
52731;DHT22;38624;53.242;6.974;2023-05-07T12:18:21;30.70;99.90
52731;DHT22;38624;53.242;6.974;2023-05-07T12:20:47;32.10;99.90
52731;DHT22;38624;53.242;6.974;2023-05-07T12:23:12;33.40;99.90
52731;DHT22;38624;53.242;6.974;2023-05-07T12:25:38;33.60;99.90
52731;DHT22;38624;53.242;6.974;2023-05-07T12:28:05;33.10;99.90
52731;DHT22;38624;53.242;6.974;2023-05-07T12:30:31;33.40;99.90
52731;DHT22;38624;53.242;6.974;2023-05-07T12:32:58;33.90;99.90
52731;DHT22;38624;53.242;6.974;2023-05-07T12:35:30;34.40;99.90
52731;DHT22;38624;53.242;6.974;2023-05-07T12:37:56;33.50;99.90
52731;DHT22;38624;53.242;6.974;2023-05-07T12:40:22;34.10;99.90
52731;DHT22;38624;53.242;6.974;2023-05-07T12:42:47;33.10;97.40
52731;DHT22;38624;53.242;6.974;2023-05-07T12:45:17;34.00;99.90
52731;DHT22;38624;53.242;6.974;2023-05-07T12:47:44;34.30;99.90
52731;DHT22;38624;53.242;6.974;2023-05-07T12:50:10;34.00;97.70
52731;DHT22;38624;53.242;6.974;2023-05-07T12:52:36;33.10;97.10
52731;DHT22;38624;53.242;6.974;2023-05-07T12:55:06;32.90;99.70
52731;DHT22;38624;53.242;6.974;2023-05-07T12:57:39;33.60;99.90
52731;DHT22;38624;53.242;6.974;2023-05-07T13:00:05;34.50;98.10
52731;DHT22;38624;53.242;6.974;2023-05-07T13:02:37;35.50;96.70
52731;DHT22;38624;53.242;6.974;2023-05-07T13:05:03;36.10;97.70
52731;DHT22;38624;53.242;6.974;2023-05-07T13:07:29;36.20;98.60
52731;DHT22;38624;53.242;6.974;2023-05-07T13:09:54;37.00;97.90
52731;DHT22;38624;53.242;6.974;2023-05-07T13:12:20;37.50;96.40
52731;DHT22;38624;53.242;6.974;2023-05-07T13:14:46;37.30;94.80
52731;DHT22;38624;53.242;6.974;2023-05-07T13:17:11;38.10;96.00
52731;DHT22;38624;53.242;6.974;2023-05-07T13:19:37;37.60;97.70
52731;DHT22;38624;53.242;6.974;2023-05-07T13:22:05;37.40;93.20
52731;DHT22;38624;53.242;6.974;2023-05-07T13:24:31;37.90;92.60
52731;DHT22;38624;53.242;6.974;2023-05-07T13:26:56;38.30;94.50
52731;DHT22;38624;53.242;6.974;2023-05-07T13:29:22;38.10;95.60
52731;DHT22;38624;53.242;6.974;2023-05-07T13:31:58;38.00;93.70
52731;DHT22;38624;53.242;6.974;2023-05-07T13:34:24;38.30;93.70
52731;DHT22;38624;53.242;6.974;2023-05-07T13:36:50;37.80;92.40
52731;DHT22;38624;53.242;6.974;2023-05-07T13:39:15;37.60;91.20
52731;DHT22;38624;53.242;6.974;2023-05-07T13:41:41;36.70;91.20
52731;DHT22;38624;53.242;6.974;2023-05-07T13:44:06;37.00;90.60
52731;DHT22;38624;53.242;6.974;2023-05-07T13:46:32;37.60;90.30
52731;DHT22;38624;53.242;6.974;2023-05-07T13:48:58;38.20;84.30
52731;DHT22;38624;53.242;6.974;2023-05-07T13:51:23;38.50;87.40
52731;DHT22;38624;53.242;6.974;2023-05-07T13:53:49;38.80;82.60
52731;DHT22;38624;53.242;6.974;2023-05-07T13:56:14;38.80;78.80
52731;DHT22;38624;53.242;6.974;2023-05-07T13:58:40;38.20;77.80
52731;DHT22;38624;53.242;6.974;2023-05-07T14:01:06;37.30;76.60
52731;DHT22;38624;53.242;6.974;2023-05-07T14:03:32;36.00;76.40
52731;DHT22;38624;53.242;6.974;2023-05-07T14:05:59;36.50;78.30
52731;DHT22;38624;53.242;6.974;2023-05-07T14:08:26;36.90;73.70
52731;DHT22;38624;53.242;6.974;2023-05-07T14:10:52;37.40;78.20
52731;DHT22;38624;53.242;6.974;2023-05-07T14:13:18;37.70;76.00
52731;DHT22;38624;53.242;6.974;2023-05-07T14:15:43;37.40;73.70
52731;DHT22;38624;53.242;6.974;2023-05-07T14:18:12;37.20;76.60
52731;DHT22;38624;53.242;6.974;2023-05-07T14:20:37;37.50;70.00
52731;DHT22;38624;53.242;6.974;2023-05-07T14:23:03;37.90;71.80
52731;DHT22;38624;53.242;6.974;2023-05-07T14:25:28;38.30;73.60
52731;DHT22;38624;53.242;6.974;2023-05-07T14:27:54;38.80;73.80
52731;DHT22;38624;53.242;6.974;2023-05-07T14:30:20;39.00;72.90
52731;DHT22;38624;53.242;6.974;2023-05-07T14:32:45;39.00;71.00
52731;DHT22;38624;53.242;6.974;2023-05-07T14:35:11;39.30;72.90
52731;DHT22;38624;53.242;6.974;2023-05-07T14:37:36;39.20;67.90
52731;DHT22;38624;53.242;6.974;2023-05-07T14:40:02;38.50;64.10
52731;DHT22;38624;53.242;6.974;2023-05-07T14:42:28;38.60;67.20
52731;DHT22;38624;53.242;6.974;2023-05-07T14:44:53;38.30;67.70
52731;DHT22;38624;53.242;6.974;2023-05-07T14:47:19;38.10;64.40
52731;DHT22;38624;53.242;6.974;2023-05-07T14:49:44;38.20;64.50
52731;DHT22;38624;53.242;6.974;2023-05-07T14:52:10;37.70;67.50
52731;DHT22;38624;53.242;6.974;2023-05-07T14:54:36;37.90;64.30
52731;DHT22;38624;53.242;6.974;2023-05-07T14:57:02;38.50;65.40
52731;DHT22;38624;53.242;6.974;2023-05-07T14:59:28;38.10;67.90
52731;DHT22;38624;53.242;6.974;2023-05-07T15:01:53;38.50;67.40
52731;DHT22;38624;53.242;6.974;2023-05-07T15:04:19;38.20;62.30
52731;DHT22;38624;53.242;6.974;2023-05-07T15:06:45;37.80;66.60
52731;DHT22;38624;53.242;6.974;2023-05-07T15:09:11;37.00;60.80
52731;DHT22;38624;53.242;6.974;2023-05-07T15:11:37;36.20;62.20
52731;DHT22;38624;53.242;6.974;2023-05-07T15:14:02;35.40;63.70
52731;DHT22;38624;53.242;6.974;2023-05-07T15:16:28;34.60;63.10
52731;DHT22;38624;53.242;6.974;2023-05-07T15:18:53;34.10;66.50
52731;DHT22;38624;53.242;6.974;2023-05-07T15:21:19;33.70;66.60
52731;DHT22;38624;53.242;6.974;2023-05-07T15:23:45;33.50;66.20
52731;DHT22;38624;53.242;6.974;2023-05-07T15:26:10;34.10;66.00
52731;DHT22;38624;53.242;6.974;2023-05-07T15:28:36;33.80;66.30
52731;DHT22;38624;53.242;6.974;2023-05-07T15:31:02;33.40;66.40
52731;DHT22;38624;53.242;6.974;2023-05-07T15:33:27;33.20;66.40
52731;DHT22;38624;53.242;6.974;2023-05-07T15:35:53;33.20;66.70
52731;DHT22;38624;53.242;6.974;2023-05-07T15:38:18;33.30;67.00